sensor_id;sensor_type;location;lat;lon;timestamp;temperature;humidity
13976;DHT22;7062;49.792;9.946;2023-04-24T00:01:42;12.30;99.90
13976;DHT22;7062;49.792;9.946;2023-04-24T00:04:08;12.30;99.90
13976;DHT22;7062;49.792;9.946;2023-04-24T00:06:36;12.30;99.90
13976;DHT22;7062;49.792;9.946;2023-04-24T00:09:03;12.30;99.90
13976;DHT22;7062;49.792;9.946;2023-04-24T00:11:29;12.30;99.90
13976;DHT22;7062;49.792;9.946;2023-04-24T00:13:56;12.20;99.90
13976;DHT22;7062;49.792;9.946;2023-04-24T00:16:22;12.20;99.90
13976;DHT22;7062;49.792;9.946;2023-04-24T00:18:48;12.20;99.90
13976;DHT22;7062;49.792;9.946;2023-04-24T00:21:14;12.10;99.90
13976;DHT22;7062;49.792;9.946;2023-04-24T00:23:41;12.20;99.90
13976;DHT22;7062;49.792;9.946;2023-04-24T00:26:07;12.20;99.90
13976;DHT22;7062;49.792;9.946;2023-04-24T00:28:32;12.20;99.90
13976;DHT22;7062;49.792;9.946;2023-04-24T00:30:58;12.20;99.90
13976;DHT22;7062;49.792;9.946;2023-04-24T00:33:23;12.20;99.90
13976;DHT22;7062;49.792;9.946;2023-04-24T00:35:49;12.20;99.90
13976;DHT22;7062;49.792;9.946;2023-04-24T00:38:15;12.20;99.90
13976;DHT22;7062;49.792;9.946;2023-04-24T00:40:41;12.20;99.90
13976;DHT22;7062;49.792;9.946;2023-04-24T00:43:06;12.20;99.90
13976;DHT22;7062;49.792;9.946;2023-04-24T00:45:32;12.20;99.90
13976;DHT22;7062;49.792;9.946;2023-04-24T00:47:58;12.20;99.90
13976;DHT22;7062;49.792;9.946;2023-04-24T00:50:25;12.10;99.90
13976;DHT22;7062;49.792;9.946;2023-04-24T00:52:52;12.20;99.90
13976;DHT22;7062;49.792;9.946;2023-04-24T00:55:18;12.20;99.90
13976;DHT22;7062;49.792;9.946;2023-04-24T00:57:44;12.20;99.90
13976;DHT22;7062;49.792;9.946;2023-04-24T01:00:10;12.10;99.90
13976;DHT22;7062;49.792;9.946;2023-04-24T01:02:39;12.10;99.90
13976;DHT22;7062;49.792;9.946;2023-04-24T01:05:07;12.10;99.90
13976;DHT22;7062;49.792;9.946;2023-04-24T01:07:33;12.10;99.90
13976;DHT22;7062;49.792;9.946;2023-04-24T01:10:00;12.10;99.90
13976;DHT22;7062;49.792;9.946;2023-04-24T01:12:25;12.20;99.90
13976;DHT22;7062;49.792;9.946;2023-04-24T01:14:51;12.20;99.90
13976;DHT22;7062;49.792;9.946;2023-04-24T01:17:16;12.10;99.90
13976;DHT22;7062;49.792;9.946;2023-04-24T01:19:42;12.10;99.90
13976;DHT22;7062;49.792;9.946;2023-04-24T01:22:16;12.00;99.90
13976;DHT22;7062;49.792;9.946;2023-04-24T01:24:43;12.00;99.90
13976;DHT22;7062;49.792;9.946;2023-04-24T01:27:10;12.10;99.90
13976;DHT22;7062;49.792;9.946;2023-04-24T01:29:36;12.10;99.90
13976;DHT22;7062;49.792;9.946;2023-04-24T01:32:03;12.10;99.90
13976;DHT22;7062;49.792;9.946;2023-04-24T01:34:29;12.10;99.90
13976;DHT22;7062;49.792;9.946;2023-04-24T01:36:55;12.10;99.90
13976;DHT22;7062;49.792;9.946;2023-04-24T01:39:22;12.10;99.90
13976;DHT22;7062;49.792;9.946;2023-04-24T01:41:48;12.10;99.90
13976;DHT22;7062;49.792;9.946;2023-04-24T01:44:16;12.20;99.90
13976;DHT22;7062;49.792;9.946;2023-04-24T01:46:42;12.10;99.90
13976;DHT22;7062;49.792;9.946;2023-04-24T01:49:08;12.10;99.90
13976;DHT22;7062;49.792;9.946;2023-04-24T01:51:33;12.10;99.90
13976;DHT22;7062;49.792;9.946;2023-04-24T01:53:59;12.10;99.90
13976;DHT22;7062;49.792;9.946;2023-04-24T01:56:25;12.10;99.90
13976;DHT22;7062;49.792;9.946;2023-04-24T01:58:54;12.10;99.90
13976;DHT22;7062;49.792;9.946;2023-04-24T02:01:20;12.10;99.90
13976;DHT22;7062;49.792;9.946;2023-04-24T02:03:46;12.10;99.90
13976;DHT22;7062;49.792;9.946;2023-04-24T02:06:12;12.10;99.90
13976;DHT22;7062;49.792;9.946;2023-04-24T02:08:38;12.00;99.90
13976;DHT22;7062;49.792;9.946;2023-04-24T02:11:03;12.00;99.90
13976;DHT22;7062;49.792;9.946;2023-04-24T02:13:29;12.00;99.90
13976;DHT22;7062;49.792;9.946;2023-04-24T02:15:54;12.00;99.90
13976;DHT22;7062;49.792;9.946;2023-04-24T02:18:20;12.10;99.90
13976;DHT22;7062;49.792;9.946;2023-04-24T02:20:48;12.10;99.90
13976;DHT22;7062;49.792;9.946;2023-04-24T02:23:13;12.10;99.90
13976;DHT22;7062;49.792;9.946;2023-04-24T02:25:40;12.10;99.90
13976;DHT22;7062;49.792;9.946;2023-04-24T02:28:05;12.10;99.90
13976;DHT22;7062;49.792;9.946;2023-04-24T02:30:31;12.00;99.90
13976;DHT22;7062;49.792;9.946;2023-04-24T02:32:57;12.00;99.90
13976;DHT22;7062;49.792;9.946;2023-04-24T02:35:23;12.00;99.90
13976;DHT22;7062;49.792;9.946;2023-04-24T02:37:48;12.00;99.90
13976;DHT22;7062;49.792;9.946;2023-04-24T02:40:14;11.90;99.90
13976;DHT22;7062;49.792;9.946;2023-04-24T02:42:39;12.00;99.90
13976;DHT22;7062;49.792;9.946;2023-04-24T02:45:06;11.90;99.90
13976;DHT22;7062;49.792;9.946;2023-04-24T02:47:31;11.90;99.90
13976;DHT22;7062;49.792;9.946;2023-04-24T02:49:57;11.90;99.90
13976;DHT22;7062;49.792;9.946;2023-04-24T02:52:22;11.70;99.90
13976;DHT22;7062;49.792;9.946;2023-04-24T02:54:48;11.80;99.90
13976;DHT22;7062;49.792;9.946;2023-04-24T02:57:14;11.70;99.90
13976;DHT22;7062;49.792;9.946;2023-04-24T02:59:40;11.80;99.90
13976;DHT22;7062;49.792;9.946;2023-04-24T03:02:06;11.80;99.90
13976;DHT22;7062;49.792;9.946;2023-04-24T03:04:31;11.80;99.90
13976;DHT22;7062;49.792;9.946;2023-04-24T03:06:57;11.70;99.90
13976;DHT22;7062;49.792;9.946;2023-04-24T03:09:23;11.80;99.90
13976;DHT22;7062;49.792;9.946;2023-04-24T03:11:49;11.80;99.90
13976;DHT22;7062;49.792;9.946;2023-04-24T03:14:15;11.80;99.90
13976;DHT22;7062;49.792;9.946;2023-04-24T03:16:41;11.80;99.90
13976;DHT22;7062;49.792;9.946;2023-04-24T03:19:06;11.70;99.90
13976;DHT22;7062;49.792;9.946;2023-04-24T03:21:32;11.70;99.90
13976;DHT22;7062;49.792;9.946;2023-04-24T03:23:58;11.70;99.90
13976;DHT22;7062;49.792;9.946;2023-04-24T03:26:24;11.80;99.90
13976;DHT22;7062;49.792;9.946;2023-04-24T03:28:50;11.70;99.90
13976;DHT22;7062;49.792;9.946;2023-04-24T03:31:15;11.70;99.90
13976;DHT22;7062;49.792;9.946;2023-04-24T03:33:42;11.80;99.90
13976;DHT22;7062;49.792;9.946;2023-04-24T03:36:07;11.90;99.90
13976;DHT22;7062;49.792;9.946;2023-04-24T03:38:33;11.80;99.90
13976;DHT22;7062;49.792;9.946;2023-04-24T03:40:59;11.80;99.90
13976;DHT22;7062;49.792;9.946;2023-04-24T03:43:24;11.90;99.90
13976;DHT22;7062;49.792;9.946;2023-04-24T03:45:50;11.90;99.90
13976;DHT22;7062;49.792;9.946;2023-04-24T03:48:16;11.90;99.90
13976;DHT22;7062;49.792;9.946;2023-04-24T03:50:41;12.00;99.90
13976;DHT22;7062;49.792;9.946;2023-04-24T03:53:07;12.00;99.90
13976;DHT22;7062;49.792;9.946;2023-04-24T03:55:33;12.00;99.90
13976;DHT22;7062;49.792;9.946;2023-04-24T03:57:59;11.90;99.90
13976;DHT22;7062;49.792;9.946;2023-04-24T04:00:24;11.80;99.90
13976;DHT22;7062;49.792;9.946;2023-04-24T04:02:51;11.90;99.90
13976;DHT22;7062;49.792;9.946;2023-04-24T04:05:17;11.90;99.90
13976;DHT22;7062;49.792;9.946;2023-04-24T04:07:42;11.80;99.90
13976;DHT22;7062;49.792;9.946;2023-04-24T04:10:08;11.80;99.90
13976;DHT22;7062;49.792;9.946;2023-04-24T04:12:34;11.70;99.90
13976;DHT22;7062;49.792;9.946;2023-04-24T04:14:59;11.60;99.90
13976;DHT22;7062;49.792;9.946;2023-04-24T04:17:25;11.70;99.90
13976;DHT22;7062;49.792;9.946;2023-04-24T04:19:51;11.60;99.90
13976;DHT22;7062;49.792;9.946;2023-04-24T04:22:16;11.60;99.90
13976;DHT22;7062;49.792;9.946;2023-04-24T04:24:42;11.50;99.90
13976;DHT22;7062;49.792;9.946;2023-04-24T04:27:08;11.60;99.90
13976;DHT22;7062;49.792;9.946;2023-04-24T04:29:34;11.60;99.90
13976;DHT22;7062;49.792;9.946;2023-04-24T04:32:01;11.60;99.90
13976;DHT22;7062;49.792;9.946;2023-04-24T04:34:27;11.60;99.90
13976;DHT22;7062;49.792;9.946;2023-04-24T04:36:54;11.60;99.90
13976;DHT22;7062;49.792;9.946;2023-04-24T04:39:20;11.50;99.90
13976;DHT22;7062;49.792;9.946;2023-04-24T04:41:45;11.60;99.90
13976;DHT22;7062;49.792;9.946;2023-04-24T04:44:14;11.50;99.90
13976;DHT22;7062;49.792;9.946;2023-04-24T04:46:40;11.60;99.90
13976;DHT22;7062;49.792;9.946;2023-04-24T04:49:07;11.60;99.90
13976;DHT22;7062;49.792;9.946;2023-04-24T04:51:34;11.60;99.90
13976;DHT22;7062;49.792;9.946;2023-04-24T04:53:59;11.60;99.90
13976;DHT22;7062;49.792;9.946;2023-04-24T04:56:25;11.60;99.90
13976;DHT22;7062;49.792;9.946;2023-04-24T04:58:51;11.50;99.90
13976;DHT22;7062;49.792;9.946;2023-04-24T05:01:17;11.50;99.90
13976;DHT22;7062;49.792;9.946;2023-04-24T05:03:43;11.50;99.90
13976;DHT22;7062;49.792;9.946;2023-04-24T05:06:08;11.50;99.90
13976;DHT22;7062;49.792;9.946;2023-04-24T05:08:34;11.40;99.90
13976;DHT22;7062;49.792;9.946;2023-04-24T05:11:00;11.50;99.90
13976;DHT22;7062;49.792;9.946;2023-04-24T05:13:25;11.40;99.90
13976;DHT22;7062;49.792;9.946;2023-04-24T05:15:51;11.40;99.90
13976;DHT22;7062;49.792;9.946;2023-04-24T05:18:17;11.30;99.90
13976;DHT22;7062;49.792;9.946;2023-04-24T05:20:42;11.30;99.90
13976;DHT22;7062;49.792;9.946;2023-04-24T05:23:09;11.40;99.90
13976;DHT22;7062;49.792;9.946;2023-04-24T05:25:35;11.40;99.90
13976;DHT22;7062;49.792;9.946;2023-04-24T05:28:01;11.30;99.90
13976;DHT22;7062;49.792;9.946;2023-04-24T05:30:27;11.40;99.90
13976;DHT22;7062;49.792;9.946;2023-04-24T05:32:53;11.30;99.90
13976;DHT22;7062;49.792;9.946;2023-04-24T05:35:19;11.20;99.90
13976;DHT22;7062;49.792;9.946;2023-04-24T05:37:44;11.20;99.90
13976;DHT22;7062;49.792;9.946;2023-04-24T05:40:10;11.10;99.90
13976;DHT22;7062;49.792;9.946;2023-04-24T05:42:36;11.10;99.90
13976;DHT22;7062;49.792;9.946;2023-04-24T05:45:05;11.30;99.90
13976;DHT22;7062;49.792;9.946;2023-04-24T05:47:31;11.20;99.90
13976;DHT22;7062;49.792;9.946;2023-04-24T05:49:57;11.20;99.90
13976;DHT22;7062;49.792;9.946;2023-04-24T05:52:22;11.30;99.90
13976;DHT22;7062;49.792;9.946;2023-04-24T05:54:48;11.20;99.90
13976;DHT22;7062;49.792;9.946;2023-04-24T05:57:14;11.20;99.90
13976;DHT22;7062;49.792;9.946;2023-04-24T05:59:40;11.30;99.90
13976;DHT22;7062;49.792;9.946;2023-04-24T06:02:06;11.30;99.90
13976;DHT22;7062;49.792;9.946;2023-04-24T06:04:32;11.40;99.90
13976;DHT22;7062;49.792;9.946;2023-04-24T06:06:59;11.40;99.90
13976;DHT22;7062;49.792;9.946;2023-04-24T06:09:25;11.30;99.90
13976;DHT22;7062;49.792;9.946;2023-04-24T06:11:51;11.30;99.90
13976;DHT22;7062;49.792;9.946;2023-04-24T06:14:20;11.40;99.90
13976;DHT22;7062;49.792;9.946;2023-04-24T06:16:46;11.30;99.90
13976;DHT22;7062;49.792;9.946;2023-04-24T06:19:12;11.30;99.90
13976;DHT22;7062;49.792;9.946;2023-04-24T06:21:37;11.30;99.90
13976;DHT22;7062;49.792;9.946;2023-04-24T06:24:03;11.40;99.90
13976;DHT22;7062;49.792;9.946;2023-04-24T06:26:30;11.30;99.90
13976;DHT22;7062;49.792;9.946;2023-04-24T06:28:55;11.60;99.90
13976;DHT22;7062;49.792;9.946;2023-04-24T06:31:21;11.70;99.90
13976;DHT22;7062;49.792;9.946;2023-04-24T06:33:48;11.60;99.90
13976;DHT22;7062;49.792;9.946;2023-04-24T06:36:14;11.60;99.90
13976;DHT22;7062;49.792;9.946;2023-04-24T06:38:41;11.70;99.90
13976;DHT22;7062;49.792;9.946;2023-04-24T06:41:07;11.60;99.90
13976;DHT22;7062;49.792;9.946;2023-04-24T06:43:33;11.60;99.90
13976;DHT22;7062;49.792;9.946;2023-04-24T06:46:00;11.60;99.90
13976;DHT22;7062;49.792;9.946;2023-04-24T06:48:26;11.60;99.90
13976;DHT22;7062;49.792;9.946;2023-04-24T06:50:52;11.60;99.90
13976;DHT22;7062;49.792;9.946;2023-04-24T06:53:18;11.70;99.90
13976;DHT22;7062;49.792;9.946;2023-04-24T06:55:43;11.80;99.90
13976;DHT22;7062;49.792;9.946;2023-04-24T06:58:11;11.70;99.90
13976;DHT22;7062;49.792;9.946;2023-04-24T07:00:37;11.70;99.90
13976;DHT22;7062;49.792;9.946;2023-04-24T07:03:03;11.70;99.90
13976;DHT22;7062;49.792;9.946;2023-04-24T07:05:30;11.70;99.90
13976;DHT22;7062;49.792;9.946;2023-04-24T07:07:56;11.50;99.90
13976;DHT22;7062;49.792;9.946;2023-04-24T07:10:23;11.70;99.90
13976;DHT22;7062;49.792;9.946;2023-04-24T07:12:49;11.80;99.90
13976;DHT22;7062;49.792;9.946;2023-04-24T07:15:15;11.70;99.90
13976;DHT22;7062;49.792;9.946;2023-04-24T07:17:41;11.80;99.90
13976;DHT22;7062;49.792;9.946;2023-04-24T07:20:10;11.90;99.90
13976;DHT22;7062;49.792;9.946;2023-04-24T07:22:40;12.00;99.90
13976;DHT22;7062;49.792;9.946;2023-04-24T07:25:06;12.20;99.90
13976;DHT22;7062;49.792;9.946;2023-04-24T07:27:33;12.50;99.90
13976;DHT22;7062;49.792;9.946;2023-04-24T07:29:59;12.50;99.90
13976;DHT22;7062;49.792;9.946;2023-04-24T07:32:25;12.70;99.90
13976;DHT22;7062;49.792;9.946;2023-04-24T07:34:50;12.80;99.90
13976;DHT22;7062;49.792;9.946;2023-04-24T07:37:16;12.70;99.90
13976;DHT22;7062;49.792;9.946;2023-04-24T07:39:42;12.50;99.90
13976;DHT22;7062;49.792;9.946;2023-04-24T07:42:07;12.50;99.90
13976;DHT22;7062;49.792;9.946;2023-04-24T07:44:33;12.70;99.90
13976;DHT22;7062;49.792;9.946;2023-04-24T07:46:59;12.60;99.90
13976;DHT22;7062;49.792;9.946;2023-04-24T07:49:25;12.70;99.90
13976;DHT22;7062;49.792;9.946;2023-04-24T07:51:50;12.80;99.90
13976;DHT22;7062;49.792;9.946;2023-04-24T07:54:16;12.80;99.90
13976;DHT22;7062;49.792;9.946;2023-04-24T07:56:44;12.80;99.90
13976;DHT22;7062;49.792;9.946;2023-04-24T07:59:10;12.60;99.90
13976;DHT22;7062;49.792;9.946;2023-04-24T08:01:36;12.50;99.90
13976;DHT22;7062;49.792;9.946;2023-04-24T08:04:02;12.60;99.90
13976;DHT22;7062;49.792;9.946;2023-04-24T08:06:28;12.80;99.90
13976;DHT22;7062;49.792;9.946;2023-04-24T08:08:58;12.70;99.90
13976;DHT22;7062;49.792;9.946;2023-04-24T08:11:25;12.70;99.90
13976;DHT22;7062;49.792;9.946;2023-04-24T08:13:50;12.80;99.90
13976;DHT22;7062;49.792;9.946;2023-04-24T08:16:16;12.80;99.90
13976;DHT22;7062;49.792;9.946;2023-04-24T08:18:42;12.70;99.90
13976;DHT22;7062;49.792;9.946;2023-04-24T08:21:07;12.60;99.90
13976;DHT22;7062;49.792;9.946;2023-04-24T08:23:33;12.50;99.90
13976;DHT22;7062;49.792;9.946;2023-04-24T08:25:59;12.60;99.90
13976;DHT22;7062;49.792;9.946;2023-04-24T08:28:25;12.50;99.90
13976;DHT22;7062;49.792;9.946;2023-04-24T08:30:51;12.50;99.90
13976;DHT22;7062;49.792;9.946;2023-04-24T08:33:21;12.60;99.90
13976;DHT22;7062;49.792;9.946;2023-04-24T08:35:47;12.70;99.90
13976;DHT22;7062;49.792;9.946;2023-04-24T08:38:12;12.70;99.90
13976;DHT22;7062;49.792;9.946;2023-04-24T08:40:38;12.60;99.90
13976;DHT22;7062;49.792;9.946;2023-04-24T08:43:05;12.50;99.90
13976;DHT22;7062;49.792;9.946;2023-04-24T08:45:30;12.70;99.90
13976;DHT22;7062;49.792;9.946;2023-04-24T08:47:58;12.50;99.90
13976;DHT22;7062;49.792;9.946;2023-04-24T08:50:25;12.30;99.90
13976;DHT22;7062;49.792;9.946;2023-04-24T08:52:52;12.10;99.90
13976;DHT22;7062;49.792;9.946;2023-04-24T08:55:23;12.20;99.90
13976;DHT22;7062;49.792;9.946;2023-04-24T08:57:51;12.30;99.90
13976;DHT22;7062;49.792;9.946;2023-04-24T09:00:21;12.30;99.90
13976;DHT22;7062;49.792;9.946;2023-04-24T09:02:49;12.30;99.90
13976;DHT22;7062;49.792;9.946;2023-04-24T09:05:17;12.50;99.90
13976;DHT22;7062;49.792;9.946;2023-04-24T09:07:45;13.50;99.90
13976;DHT22;7062;49.792;9.946;2023-04-24T09:10:14;13.60;99.90
13976;DHT22;7062;49.792;9.946;2023-04-24T09:12:41;14.40;99.90
13976;DHT22;7062;49.792;9.946;2023-04-24T09:15:08;16.00;99.90
13976;DHT22;7062;49.792;9.946;2023-04-24T09:17:34;17.60;99.90
13976;DHT22;7062;49.792;9.946;2023-04-24T09:20:00;16.80;99.90
13976;DHT22;7062;49.792;9.946;2023-04-24T09:22:32;17.30;99.90
13976;DHT22;7062;49.792;9.946;2023-04-24T09:25:05;16.90;99.90
13976;DHT22;7062;49.792;9.946;2023-04-24T09:27:33;16.50;99.90
13976;DHT22;7062;49.792;9.946;2023-04-24T09:29:59;16.50;99.90
13976;DHT22;7062;49.792;9.946;2023-04-24T09:32:26;16.90;99.90
13976;DHT22;7062;49.792;9.946;2023-04-24T09:35:06;18.40;99.90
13976;DHT22;7062;49.792;9.946;2023-04-24T09:37:41;18.80;99.90
13976;DHT22;7062;49.792;9.946;2023-04-24T09:40:12;18.10;99.90
13976;DHT22;7062;49.792;9.946;2023-04-24T09:42:38;18.10;99.90
13976;DHT22;7062;49.792;9.946;2023-04-24T09:45:09;18.50;99.90
13976;DHT22;7062;49.792;9.946;2023-04-24T09:47:37;19.30;99.90
13976;DHT22;7062;49.792;9.946;2023-04-24T09:50:14;18.50;99.90
13976;DHT22;7062;49.792;9.946;2023-04-24T09:52:44;19.40;99.90
13976;DHT22;7062;49.792;9.946;2023-04-24T09:55:18;20.30;99.90
13976;DHT22;7062;49.792;9.946;2023-04-24T09:58:02;17.60;99.90
13976;DHT22;7062;49.792;9.946;2023-04-24T10:00:34;15.90;99.90
13976;DHT22;7062;49.792;9.946;2023-04-24T10:03:02;15.70;99.90
13976;DHT22;7062;49.792;9.946;2023-04-24T10:05:36;15.10;99.90
13976;DHT22;7062;49.792;9.946;2023-04-24T10:10:29;14.60;99.90
13976;DHT22;7062;49.792;9.946;2023-04-24T10:12:55;14.40;99.90
13976;DHT22;7062;49.792;9.946;2023-04-24T10:15:21;14.20;99.90
13976;DHT22;7062;49.792;9.946;2023-04-24T10:17:49;13.90;99.90
13976;DHT22;7062;49.792;9.946;2023-04-24T10:20:38;14.20;99.90
13976;DHT22;7062;49.792;9.946;2023-04-24T10:23:05;14.40;99.90
13976;DHT22;7062;49.792;9.946;2023-04-24T10:25:33;14.30;99.90
13976;DHT22;7062;49.792;9.946;2023-04-24T10:28:00;14.80;99.90
13976;DHT22;7062;49.792;9.946;2023-04-24T10:30:33;15.60;99.90
13976;DHT22;7062;49.792;9.946;2023-04-24T10:33:04;15.90;99.90
13976;DHT22;7062;49.792;9.946;2023-04-24T10:35:31;16.10;99.90
13976;DHT22;7062;49.792;9.946;2023-04-24T10:38:02;15.50;99.90
13976;DHT22;7062;49.792;9.946;2023-04-24T10:40:33;14.80;99.90
13976;DHT22;7062;49.792;9.946;2023-04-24T10:43:01;14.40;99.90
13976;DHT22;7062;49.792;9.946;2023-04-24T10:45:27;14.30;99.90
13976;DHT22;7062;49.792;9.946;2023-04-24T10:47:53;14.00;99.90
13976;DHT22;7062;49.792;9.946;2023-04-24T10:50:21;14.00;99.90
13976;DHT22;7062;49.792;9.946;2023-04-24T10:52:48;13.80;99.90
13976;DHT22;7062;49.792;9.946;2023-04-24T10:55:16;13.50;99.90
13976;DHT22;7062;49.792;9.946;2023-04-24T10:58:04;13.50;99.90
13976;DHT22;7062;49.792;9.946;2023-04-24T11:00:30;13.30;99.90
13976;DHT22;7062;49.792;9.946;2023-04-24T11:02:57;13.20;99.90
13976;DHT22;7062;49.792;9.946;2023-04-24T11:05:50;13.30;99.90
13976;DHT22;7062;49.792;9.946;2023-04-24T11:11:17;13.70;99.90
13976;DHT22;7062;49.792;9.946;2023-04-24T11:16:33;13.90;99.90
13976;DHT22;7062;49.792;9.946;2023-04-24T11:25:11;13.40;99.90
13976;DHT22;7062;49.792;9.946;2023-04-24T11:27:21;13.10;99.90
13976;DHT22;7062;49.792;9.946;2023-04-24T11:34:58;13.50;99.90
13976;DHT22;7062;49.792;9.946;2023-04-24T11:40:01;13.20;99.90
13976;DHT22;7062;49.792;9.946;2023-04-24T11:42:28;13.10;99.90
13976;DHT22;7062;49.792;9.946;2023-04-24T11:44:58;13.00;99.90
13976;DHT22;7062;49.792;9.946;2023-04-24T11:47:32;13.00;99.90
13976;DHT22;7062;49.792;9.946;2023-04-24T11:49:59;12.90;99.90
13976;DHT22;7062;49.792;9.946;2023-04-24T11:52:29;13.00;99.90
13976;DHT22;7062;49.792;9.946;2023-04-24T11:54:55;13.20;99.90
13976;DHT22;7062;49.792;9.946;2023-04-24T11:57:23;13.40;99.90
13976;DHT22;7062;49.792;9.946;2023-04-24T11:59:49;13.40;99.90
13976;DHT22;7062;49.792;9.946;2023-04-24T12:04:48;12.80;99.90
13976;DHT22;7062;49.792;9.946;2023-04-24T12:07:13;12.70;99.90
13976;DHT22;7062;49.792;9.946;2023-04-24T12:12:08;14.10;99.90
13976;DHT22;7062;49.792;9.946;2023-04-24T12:14:42;14.30;99.90
13976;DHT22;7062;49.792;9.946;2023-04-24T12:17:08;15.30;99.90
13976;DHT22;7062;49.792;9.946;2023-04-24T12:19:34;16.50;99.90
13976;DHT22;7062;49.792;9.946;2023-04-24T12:22:01;16.70;99.90
13976;DHT22;7062;49.792;9.946;2023-04-24T12:24:27;17.10;99.90
13976;DHT22;7062;49.792;9.946;2023-04-24T12:26:53;18.90;99.90
13976;DHT22;7062;49.792;9.946;2023-04-24T12:29:20;18.10;99.90
13976;DHT22;7062;49.792;9.946;2023-04-24T12:31:46;16.90;99.90
13976;DHT22;7062;49.792;9.946;2023-04-24T12:34:22;16.10;99.90
13976;DHT22;7062;49.792;9.946;2023-04-24T12:36:49;16.70;99.90
13976;DHT22;7062;49.792;9.946;2023-04-24T12:39:18;18.10;99.90
13976;DHT22;7062;49.792;9.946;2023-04-24T12:41:57;17.10;99.90
13976;DHT22;7062;49.792;9.946;2023-04-24T12:44:32;16.60;99.90
13976;DHT22;7062;49.792;9.946;2023-04-24T12:47:00;16.40;99.90
13976;DHT22;7062;49.792;9.946;2023-04-24T12:49:26;15.90;99.90
13976;DHT22;7062;49.792;9.946;2023-04-24T12:51:52;15.10;99.90
13976;DHT22;7062;49.792;9.946;2023-04-24T12:54:18;14.60;99.90
13976;DHT22;7062;49.792;9.946;2023-04-24T12:56:43;14.30;99.90
13976;DHT22;7062;49.792;9.946;2023-04-24T12:59:09;14.10;99.90
13976;DHT22;7062;49.792;9.946;2023-04-24T13:01:35;14.30;99.90
13976;DHT22;7062;49.792;9.946;2023-04-24T13:04:01;14.20;99.90
13976;DHT22;7062;49.792;9.946;2023-04-24T13:06:26;14.20;99.90
13976;DHT22;7062;49.792;9.946;2023-04-24T13:08:52;13.90;99.90
13976;DHT22;7062;49.792;9.946;2023-04-24T13:11:20;13.80;99.90
13976;DHT22;7062;49.792;9.946;2023-04-24T13:13:47;13.80;99.90
13976;DHT22;7062;49.792;9.946;2023-04-24T13:16:13;13.90;99.90
13976;DHT22;7062;49.792;9.946;2023-04-24T13:18:38;13.60;99.90
13976;DHT22;7062;49.792;9.946;2023-04-24T13:21:04;13.40;99.90
13976;DHT22;7062;49.792;9.946;2023-04-24T13:23:30;13.40;99.90
13976;DHT22;7062;49.792;9.946;2023-04-24T13:25:55;13.50;99.90
13976;DHT22;7062;49.792;9.946;2023-04-24T13:28:24;13.80;99.90
13976;DHT22;7062;49.792;9.946;2023-04-24T13:30:51;14.30;99.90
13976;DHT22;7062;49.792;9.946;2023-04-24T13:33:16;14.40;99.90
13976;DHT22;7062;49.792;9.946;2023-04-24T13:35:42;15.10;99.90
13976;DHT22;7062;49.792;9.946;2023-04-24T13:38:08;16.50;99.90
13976;DHT22;7062;49.792;9.946;2023-04-24T13:40:34;16.50;99.90
13976;DHT22;7062;49.792;9.946;2023-04-24T13:43:00;16.10;99.90
13976;DHT22;7062;49.792;9.946;2023-04-24T13:45:26;15.70;99.90
13976;DHT22;7062;49.792;9.946;2023-04-24T13:47:52;15.20;99.90
13976;DHT22;7062;49.792;9.946;2023-04-24T13:50:19;14.80;99.90
13976;DHT22;7062;49.792;9.946;2023-04-24T13:52:45;14.60;99.90
13976;DHT22;7062;49.792;9.946;2023-04-24T13:55:11;14.10;99.90
13976;DHT22;7062;49.792;9.946;2023-04-24T13:57:36;13.90;99.90
13976;DHT22;7062;49.792;9.946;2023-04-24T14:00:03;13.80;99.90
13976;DHT22;7062;49.792;9.946;2023-04-24T14:02:29;13.60;99.90
13976;DHT22;7062;49.792;9.946;2023-04-24T14:04:55;13.50;99.90
13976;DHT22;7062;49.792;9.946;2023-04-24T14:07:21;13.10;99.90
13976;DHT22;7062;49.792;9.946;2023-04-24T14:09:47;12.60;99.90
13976;DHT22;7062;49.792;9.946;2023-04-24T14:12:12;12.50;99.90
13976;DHT22;7062;49.792;9.946;2023-04-24T14:14:39;12.40;99.90
13976;DHT22;7062;49.792;9.946;2023-04-24T14:17:05;12.10;99.90
13976;DHT22;7062;49.792;9.946;2023-04-24T14:19:31;12.40;99.90
13976;DHT22;7062;49.792;9.946;2023-04-24T14:21:56;12.30;99.90
13976;DHT22;7062;49.792;9.946;2023-04-24T14:24:23;12.20;99.90
13976;DHT22;7062;49.792;9.946;2023-04-24T14:26:49;12.20;99.90
13976;DHT22;7062;49.792;9.946;2023-04-24T14:29:15;12.60;99.90
13976;DHT22;7062;49.792;9.946;2023-04-24T14:31:42;13.10;99.90
13976;DHT22;7062;49.792;9.946;2023-04-24T14:34:07;14.20;99.90
13976;DHT22;7062;49.792;9.946;2023-04-24T14:36:33;15.00;99.90
13976;DHT22;7062;49.792;9.946;2023-04-24T14:38:59;15.80;99.90
13976;DHT22;7062;49.792;9.946;2023-04-24T14:41:25;16.60;99.90
13976;DHT22;7062;49.792;9.946;2023-04-24T14:43:50;16.80;99.90
13976;DHT22;7062;49.792;9.946;2023-04-24T14:46:16;16.80;99.90
13976;DHT22;7062;49.792;9.946;2023-04-24T14:48:41;17.10;99.90
13976;DHT22;7062;49.792;9.946;2023-04-24T14:51:07;16.50;99.90
13976;DHT22;7062;49.792;9.946;2023-04-24T14:53:33;17.00;99.90
13976;DHT22;7062;49.792;9.946;2023-04-24T14:55:58;17.40;99.90
13976;DHT22;7062;49.792;9.946;2023-04-24T14:58:24;16.60;99.90
13976;DHT22;7062;49.792;9.946;2023-04-24T15:00:50;15.50;99.90
13976;DHT22;7062;49.792;9.946;2023-04-24T15:03:18;14.90;99.90
13976;DHT22;7062;49.792;9.946;2023-04-24T15:05:44;14.70;99.90
13976;DHT22;7062;49.792;9.946;2023-04-24T15:08:10;15.00;99.90
13976;DHT22;7062;49.792;9.946;2023-04-24T15:10:35;14.50;99.90
13976;DHT22;7062;49.792;9.946;2023-04-24T15:13:01;15.30;99.90
13976;DHT22;7062;49.792;9.946;2023-04-24T15:15:27;15.00;99.90
13976;DHT22;7062;49.792;9.946;2023-04-24T15:17:52;14.70;99.90
13976;DHT22;7062;49.792;9.946;2023-04-24T15:20:18;14.90;99.90
13976;DHT22;7062;49.792;9.946;2023-04-24T15:22:44;14.60;99.90
13976;DHT22;7062;49.792;9.946;2023-04-24T15:25:10;14.60;99.90
13976;DHT22;7062;49.792;9.946;2023-04-24T15:27:42;14.60;99.90
13976;DHT22;7062;49.792;9.946;2023-04-24T15:30:09;14.50;99.90
13976;DHT22;7062;49.792;9.946;2023-04-24T15:32:35;14.30;99.90
13976;DHT22;7062;49.792;9.946;2023-04-24T15:35:01;14.00;99.90
13976;DHT22;7062;49.792;9.946;2023-04-24T15:37:27;13.90;99.90
13976;DHT22;7062;49.792;9.946;2023-04-24T15:39:53;13.70;99.90
13976;DHT22;7062;49.792;9.946;2023-04-24T15:42:18;13.80;99.90
13976;DHT22;7062;49.792;9.946;2023-04-24T15:44:44;13.90;99.90
13976;DHT22;7062;49.792;9.946;2023-04-24T15:47:10;14.00;99.90
13976;DHT22;7062;49.792;9.946;2023-04-24T15:49:35;13.90;99.90
13976;DHT22;7062;49.792;9.946;2023-04-24T15:52:01;14.00;99.90
13976;DHT22;7062;49.792;9.946;2023-04-24T15:54:27;14.20;99.90
13976;DHT22;7062;49.792;9.946;2023-04-24T15:56:52;14.10;99.90
13976;DHT22;7062;49.792;9.946;2023-04-24T15:59:18;14.10;99.90
13976;DHT22;7062;49.792;9.946;2023-04-24T16:01:44;14.20;99.90
13976;DHT22;7062;49.792;9.946;2023-04-24T16:04:09;14.30;99.90
13976;DHT22;7062;49.792;9.946;2023-04-24T16:06:36;14.50;99.90
13976;DHT22;7062;49.792;9.946;2023-04-24T16:09:01;14.60;99.90